Time;durP1;ratioP1;P1;durP2;ratioP2;P2;SDS_P1;SDS_P2;PMS_P1;PMS_P2;Temp;Humidity;BMP_temperature;BMP_pressure;BME280_temperature;BME280_humidity;BME280_pressure;Samples;Min_cycle;Max_cycle;Signal;HPM_P1;HPM_P2
2020/12/11 00:01:00;;;;;;;33.70;14.85;;;1.00;99.90;;;;;;4737731;30;20063;-77
2020/12/11 00:03:31;;;;;;;28.15;15.20;;;1.00;99.90;;;;;;4732965;30;20100;-77
2020/12/11 00:05:57;;;;;;;30.42;14.18;;;1.00;99.90;;;;;;4735165;30;20488;-77
2020/12/11 00:08:24;;;;;;;30.17;14.80;;;1.00;99.90;;;;;;4739056;30;20059;-76
2020/12/11 00:10:50;;;;;;;35.05;16.23;;;1.00;99.90;;;;;;4752788;30;20142;-77
2020/12/11 00:13:16;;;;;;;35.35;16.80;;;1.00;99.90;;;;;;4738268;30;20063;-77
2020/12/11 00:15:47;;;;;;;30.88;15.13;;;1.00;99.90;;;;;;4734691;30;20047;-77
2020/12/11 00:18:13;;;;;;;31.15;15.07;;;0.90;99.90;;;;;;4703218;30;20065;-77
2020/12/11 00:20:45;;;;;;;34.95;15.45;;;0.90;99.90;;;;;;4716886;30;20135;-77
2020/12/11 00:23:16;;;;;;;31.88;15.40;;;0.90;99.90;;;;;;4718282;30;20052;-77
2020/12/11 00:25:42;;;;;;;34.72;16.27;;;0.80;99.90;;;;;;4716487;30;20057;-77
2020/12/11 00:28:13;;;;;;;30.95;14.52;;;0.80;99.90;;;;;;4718455;30;20144;-77
2020/12/11 00:30:45;;;;;;;33.30;15.68;;;0.80;99.90;;;;;;4718284;30;20574;-77
2020/12/11 00:33:16;;;;;;;32.80;15.40;;;0.80;99.90;;;;;;4718083;30;20484;-77
2020/12/11 00:35:47;;;;;;;34.78;16.88;;;0.80;99.90;;;;;;4704667;30;20052;-77
2020/12/11 00:38:19;;;;;;;33.50;16.95;;;0.80;99.90;;;;;;4703703;30;20052;-77
2020/12/11 00:40:46;;;;;;;38.60;16.98;;;0.80;99.90;;;;;;4718097;30;20057;-77
2020/12/11 00:43:12;;;;;;;31.77;16.63;;;0.80;99.90;;;;;;4718066;30;20062;-78
2020/12/11 00:45:39;;;;;;;31.13;16.70;;;0.80;99.90;;;;;;4703447;30;20625;-77
2020/12/11 00:48:10;;;;;;;36.03;15.73;;;0.80;99.90;;;;;;4717429;30;20055;-77
2020/12/11 00:50:42;;;;;;;34.63;16.42;;;0.90;99.90;;;;;;4718004;30;20048;-77
2020/12/11 00:53:08;;;;;;;33.05;16.77;;;0.90;99.90;;;;;;4703554;30;20107;-77
2020/12/11 00:55:40;;;;;;;31.05;15.68;;;0.90;99.90;;;;;;4704100;30;20061;-77
2020/12/11 00:58:06;;;;;;;37.70;17.65;;;0.90;99.90;;;;;;4717205;30;20063;-77
2020/12/11 01:00:37;;;;;;;32.85;15.98;;;0.80;99.90;;;;;;4717766;30;20135;-77
2020/12/11 01:03:04;;;;;;;31.55;15.85;;;0.80;99.90;;;;;;4717554;30;20142;-77
2020/12/11 01:05:35;;;;;;;32.30;15.88;;;0.80;99.90;;;;;;4717491;30;20067;-77
2020/12/11 01:08:03;;;;;;;31.42;14.75;;;0.80;99.90;;;;;;4702849;30;20481;-77
2020/12/11 01:10:34;;;;;;;32.15;15.50;;;0.80;99.90;;;;;;4703719;30;20049;-77
2020/12/11 01:13:05;;;;;;;30.38;15.50;;;0.80;99.90;;;;;;4703614;30;20143;-76
2020/12/11 01:15:32;;;;;;;32.22;15.23;;;0.80;99.90;;;;;;4703207;30;20488;-77
2020/12/11 01:17:58;;;;;;;34.05;15.63;;;0.80;99.90;;;;;;4716910;30;20091;-77
2020/12/11 01:20:24;;;;;;;32.00;15.65;;;0.80;99.90;;;;;;4703150;30;20057;-77
2020/12/11 01:22:55;;;;;;;28.88;14.63;;;0.80;99.90;;;;;;4703362;30;20064;-77
2020/12/11 01:25:22;;;;;;;35.70;18.92;;;0.80;99.90;;;;;;4702874;30;20175;-77
2020/12/11 01:27:48;;;;;;;28.80;15.80;;;0.80;99.90;;;;;;4716838;30;20076;-77
2020/12/11 01:30:14;;;;;;;35.63;16.45;;;0.70;99.90;;;;;;4717318;30;20049;-77
2020/12/11 01:32:45;;;;;;;29.70;15.50;;;0.70;99.90;;;;;;4716547;30;20167;-77
2020/12/11 01:35:11;;;;;;;33.85;16.30;;;0.70;99.90;;;;;;4702661;30;20063;-77
2020/12/11 01:37:38;;;;;;;30.55;15.57;;;0.80;99.90;;;;;;4716962;30;20420;-77
2020/12/11 01:40:05;;;;;;;29.02;14.30;;;0.80;99.90;;;;;;4716830;30;20147;-77
2020/12/11 01:42:37;;;;;;;29.58;15.10;;;0.80;99.90;;;;;;4716856;30;20067;-77
2020/12/11 01:45:04;;;;;;;27.42;15.05;;;0.90;99.90;;;;;;4702656;30;20059;-77
2020/12/11 01:47:39;;;;;;;28.35;14.20;;;0.90;99.90;;;;;;4717105;30;20044;-77
2020/12/11 01:50:18;;;;;;;28.98;14.30;;;0.90;99.90;;;;;;4716738;30;20076;-77
2020/12/11 01:52:50;;;;;;;31.00;14.32;;;0.90;99.90;;;;;;4702574;30;20056;-77
2020/12/11 01:55:17;;;;;;;29.83;14.80;;;0.80;99.90;;;;;;4702531;30;20060;-77
2020/12/11 01:58:00;;;;;;;25.00;12.98;;;0.80;99.90;;;;;;4716893;30;20041;-77
2020/12/11 02:00:33;;;;;;;26.23;13.95;;;0.80;99.90;;;;;;4711734;30;20598;-77
2020/12/11 02:03:06;;;;;;;25.30;13.90;;;0.80;99.90;;;;;;4715564;30;20148;-77
2020/12/11 02:05:38;;;;;;;24.13;13.15;;;0.80;99.90;;;;;;4716302;30;20056;-77
2020/12/11 02:08:05;;;;;;;29.33;15.82;;;0.80;99.90;;;;;;4715789;30;20160;-77
2020/12/11 02:10:36;;;;;;;26.27;13.82;;;0.70;99.90;;;;;;4715433;30;20045;-77
2020/12/11 02:13:06;;;;;;;26.42;13.75;;;0.70;99.90;;;;;;4715794;30;20053;-77
2020/12/11 02:15:39;;;;;;;26.92;14.25;;;0.70;99.90;;;;;;4702413;30;20045;-77
2020/12/11 02:18:11;;;;;;;23.92;14.15;;;0.70;99.90;;;;;;4715408;30;20572;-77
2020/12/11 02:20:37;;;;;;;24.45;13.60;;;0.70;99.90;;;;;;4731781;30;20048;-77
2020/12/11 02:23:03;;;;;;;24.45;14.32;;;0.60;99.90;;;;;;4701954;30;20044;-77
2020/12/11 02:25:29;;;;;;;25.08;14.13;;;0.60;99.90;;;;;;4716421;30;20058;-77
2020/12/11 02:28:01;;;;;;;23.42;14.05;;;0.60;99.90;;;;;;4702020;30;20058;-77
2020/12/11 02:30:27;;;;;;;25.55;13.82;;;0.60;99.90;;;;;;4701862;30;20463;-77
2020/12/11 02:32:58;;;;;;;23.75;13.82;;;0.60;99.90;;;;;;4702265;30;20055;-77
2020/12/11 02:35:29;;;;;;;25.13;13.02;;;0.60;99.90;;;;;;4716279;30;20045;-77
2020/12/11 02:37:55;;;;;;;22.92;13.30;;;0.60;99.90;;;;;;4715419;30;20496;-76
2020/12/11 02:40:22;;;;;;;25.95;12.90;;;0.60;99.90;;;;;;4715587;30;20067;-77
2020/12/11 02:42:53;;;;;;;21.58;12.63;;;0.60;99.90;;;;;;4715840;30;20055;-76
2020/12/11 02:45:24;;;;;;;21.75;12.50;;;0.50;99.90;;;;;;4701447;30;20055;-77
2020/12/11 02:47:55;;;;;;;21.60;12.73;;;0.60;99.90;;;;;;4715809;30;20060;-77
2020/12/11 02:50:27;;;;;;;22.65;12.38;;;0.60;99.90;;;;;;4732385;30;20148;-77
2020/12/11 02:52:58;;;;;;;22.90;13.25;;;0.70;99.90;;;;;;4716042;30;20147;-77
2020/12/11 02:55:24;;;;;;;23.38;12.02;;;0.70;99.90;;;;;;4716329;30;20057;-77
2020/12/11 02:57:52;;;;;;;23.65;13.15;;;0.60;99.90;;;;;;4701221;30;20056;-77
2020/12/11 03:00:23;;;;;;;24.15;13.30;;;0.60;99.90;;;;;;4702131;30;20417;-77
2020/12/11 03:02:54;;;;;;;23.85;12.90;;;0.60;99.90;;;;;;4716109;30;20143;-77
2020/12/11 03:05:21;;;;;;;24.20;13.48;;;0.60;99.90;;;;;;4715757;30;20091;-77
2020/12/11 03:07:47;;;;;;;22.42;12.60;;;0.60;99.90;;;;;;4715399;30;20410;-77
2020/12/11 03:10:18;;;;;;;23.92;13.73;;;0.60;99.90;;;;;;4716619;30;20049;-77
2020/12/11 03:12:44;;;;;;;22.75;13.23;;;0.60;99.90;;;;;;4716016;30;20067;-77
2020/12/11 03:15:17;;;;;;;25.27;13.23;;;0.70;99.90;;;;;;4716950;30;20541;-77
2020/12/11 03:17:43;;;;;;;25.02;13.80;;;0.70;99.90;;;;;;4715624;30;20073;-77
2020/12/11 03:20:10;;;;;;;22.55;12.30;;;0.70;99.90;;;;;;4716001;30;20112;-77
2020/12/11 03:22:41;;;;;;;22.80;12.75;;;0.60;99.90;;;;;;4716826;30;20052;-77
2020/12/11 03:25:07;;;;;;;26.48;13.88;;;0.60;99.90;;;;;;4715774;30;20060;-77
2020/12/11 03:27:38;;;;;;;24.60;12.73;;;0.60;99.90;;;;;;4701755;30;20052;-77
2020/12/11 03:30:04;;;;;;;22.30;13.52;;;0.50;99.90;;;;;;4701267;30;20148;-77
2020/12/11 03:32:31;;;;;;;23.05;13.05;;;0.50;99.90;;;;;;4715642;30;20576;-77
2020/12/11 03:35:02;;;;;;;23.85;13.77;;;0.40;99.90;;;;;;4702018;30;20139;-77
2020/12/11 03:37:28;;;;;;;23.98;12.55;;;0.40;99.90;;;;;;4715736;30;20426;-77
2020/12/11 03:39:54;;;;;;;21.63;12.65;;;0.50;99.90;;;;;;4715474;30;20163;-77
2020/12/11 03:42:21;;;;;;;22.48;12.77;;;0.50;99.90;;;;;;4715675;30;20095;-77
2020/12/11 03:44:47;;;;;;;24.48;14.35;;;0.50;99.90;;;;;;4700944;30;20181;-77
2020/12/11 03:47:18;;;;;;;21.55;12.40;;;0.50;99.90;;;;;;4715731;30;20052;-77
2020/12/11 03:49:49;;;;;;;22.83;13.55;;;0.50;99.90;;;;;;4701567;30;20060;-77
2020/12/11 03:52:16;;;;;;;23.80;12.35;;;0.50;99.90;;;;;;4715673;30;20144;-77
2020/12/11 03:54:47;;;;;;;24.65;13.43;;;0.50;99.90;;;;;;4715923;30;20072;-77
2020/12/11 03:57:14;;;;;;;24.45;13.05;;;0.50;99.90;;;;;;4717469;30;20056;-76
2020/12/11 03:59:40;;;;;;;22.25;13.23;;;0.50;99.90;;;;;;4704024;30;20140;-77
2020/12/11 04:02:13;;;;;;;23.92;14.32;;;0.50;99.90;;;;;;4719202;30;20048;-77
2020/12/11 04:04:44;;;;;;;24.47;13.90;;;0.50;99.90;;;;;;4734714;30;20048;-76
2020/12/11 04:07:15;;;;;;;23.13;13.15;;;0.50;99.90;;;;;;4705013;30;20148;-77
2020/12/11 04:09:42;;;;;;;23.30;12.52;;;0.50;99.90;;;;;;4718412;30;20056;-77
2020/12/11 04:12:13;;;;;;;23.20;12.82;;;0.50;99.90;;;;;;4718734;30;20602;-77
2020/12/11 04:14:45;;;;;;;23.55;12.85;;;0.50;99.90;;;;;;4720615;30;20072;-79
2020/12/11 04:17:12;;;;;;;24.63;13.00;;;0.50;99.90;;;;;;4720555;30;20115;-80
2020/12/11 04:19:40;;;;;;;23.08;13.45;;;0.40;99.90;;;;;;4720281;30;20053;-79
2020/12/11 04:22:08;;;;;;;25.00;13.32;;;0.40;99.90;;;;;;4720447;30;20118;-80
2020/12/11 04:24:35;;;;;;;24.95;13.50;;;0.40;99.90;;;;;;4705999;30;20087;-80
2020/12/11 04:27:03;;;;;;;23.27;13.25;;;0.30;99.90;;;;;;4706120;30;20059;-80
2020/12/11 04:29:30;;;;;;;21.80;12.27;;;0.30;99.90;;;;;;4720341;30;20069;-80
2020/12/11 04:31:59;;;;;;;22.58;12.63;;;0.30;99.90;;;;;;4706013;30;20057;-80
2020/12/11 04:34:26;;;;;;;21.75;12.20;;;0.30;99.90;;;;;;4719971;30;20120;-79
2020/12/11 04:36:56;;;;;;;21.98;12.35;;;0.30;99.90;;;;;;4719931;30;20064;-80
2020/12/11 04:39:25;;;;;;;23.08;13.18;;;0.30;99.90;;;;;;4720165;30;20054;-79
2020/12/11 04:41:53;;;;;;;24.13;12.38;;;0.20;99.90;;;;;;4720491;30;20056;-80
2020/12/11 04:44:21;;;;;;;23.05;13.60;;;0.30;99.90;;;;;;4705219;30;20060;-79
2020/12/11 04:46:49;;;;;;;26.00;12.65;;;0.30;99.90;;;;;;4705287;30;20502;-80
2020/12/11 04:49:18;;;;;;;22.63;12.82;;;0.40;99.90;;;;;;4719529;30;20056;-80
2020/12/11 04:51:50;;;;;;;23.95;12.80;;;0.30;99.90;;;;;;4705329;30;20060;-80
2020/12/11 04:54:22;;;;;;;21.92;12.65;;;0.40;99.90;;;;;;4719227;30;20084;-80
2020/12/11 04:56:51;;;;;;;23.70;11.98;;;0.40;99.90;;;;;;4705315;30;20075;-80
2020/12/11 04:59:19;;;;;;;21.40;12.35;;;0.40;99.90;;;;;;4719449;30;20103;-80
2020/12/11 05:01:46;;;;;;;20.90;11.95;;;0.40;99.90;;;;;;4719448;30;20052;-79
2020/12/11 05:04:18;;;;;;;24.13;13.50;;;0.40;99.90;;;;;;4718725;30;20064;-79
2020/12/11 05:06:51;;;;;;;21.98;12.20;;;0.30;99.90;;;;;;4719036;30;20048;-80
2020/12/11 05:09:22;;;;;;;21.60;13.20;;;0.20;99.90;;;;;;4718840;30;20053;-80
2020/12/11 05:11:49;;;;;;;22.58;13.05;;;0.20;99.90;;;;;;4705637;30;20425;-78
2020/12/11 05:14:25;;;;;;;24.65;13.70;;;0.20;99.90;;;;;;4719483;30;20057;-79
2020/12/11 05:17:04;;;;;;;22.77;13.20;;;0.20;99.90;;;;;;4742473;30;20043;-79
2020/12/11 05:19:33;;;;;;;22.83;11.70;;;0.10;99.90;;;;;;4739949;30;20060;-78
2020/12/11 05:22:10;;;;;;;23.30;12.43;;;0.20;99.90;;;;;;4739909;30;20048;-79
2020/12/11 05:24:45;;;;;;;24.98;12.18;;;0.20;99.90;;;;;;4739855;30;20064;-80
2020/12/11 05:27:36;;;;;;;23.85;12.73;;;0.10;99.90;;;;;;4739574;30;20048;-79
2020/12/11 05:30:15;;;;;;;25.02;13.23;;;0.20;99.90;;;;;;4741083;30;20131;-80
2020/12/11 05:32:45;;;;;;;26.52;13.55;;;0.10;99.90;;;;;;4754711;30;20475;-80
2020/12/11 05:35:17;;;;;;;24.88;12.70;;;0.10;99.90;;;;;;4755326;30;20527;-79
2020/12/11 05:37:45;;;;;;;22.98;13.00;;;0.10;99.90;;;;;;4738809;30;20094;-78
2020/12/11 05:40:20;;;;;;;24.75;12.60;;;0.20;99.90;;;;;;4754358;30;20055;-80
2020/12/11 05:43:07;;;;;;;24.35;13.15;;;0.20;99.90;;;;;;4754329;30;20497;-79
2020/12/11 05:45:37;;;;;;;26.23;12.20;;;0.00;99.90;;;;;;4754408;30;20409;-80
2020/12/11 05:48:09;;;;;;;24.27;12.55;;;-0.20;99.90;;;;;;4739506;30;20067;-78
2020/12/11 05:50:42;;;;;;;24.05;13.07;;;-0.20;99.90;;;;;;4754025;30;20101;-79
2020/12/11 05:53:09;;;;;;;25.08;12.43;;;-0.20;99.90;;;;;;4754189;30;20052;-80
2020/12/11 05:55:41;;;;;;;23.05;12.43;;;-0.30;99.90;;;;;;4754691;30;20051;-79
2020/12/11 05:58:12;;;;;;;25.30;12.95;;;-0.20;99.90;;;;;;4752524;30;20056;-81
2020/12/11 06:00:46;;;;;;;22.98;13.02;;;-0.30;99.90;;;;;;4727058;30;20083;-80
2020/12/11 06:03:19;;;;;;;21.85;11.88;;;-0.30;99.90;;;;;;4722327;30;20074;-79
2020/12/11 06:05:48;;;;;;;21.80;11.63;;;-0.40;99.90;;;;;;4736468;30;20066;-79
2020/12/11 06:08:21;;;;;;;21.60;11.43;;;-0.40;99.90;;;;;;4722349;30;20076;-80
2020/12/11 06:10:50;;;;;;;22.58;11.80;;;-0.40;99.90;;;;;;4721886;30;20436;-79
2020/12/11 06:13:28;;;;;;;20.85;11.82;;;-0.40;99.90;;;;;;4721980;30;20056;-79
2020/12/11 06:15:56;;;;;;;22.42;12.10;;;-0.40;99.90;;;;;;4719291;30;20528;-78
2020/12/11 06:18:27;;;;;;;22.00;12.73;;;-0.40;99.90;;;;;;4701598;30;20052;-78
2020/12/11 06:20:55;;;;;;;24.58;12.10;;;-0.40;99.90;;;;;;4719124;30;20064;-79
2020/12/11 06:23:29;;;;;;;22.17;12.63;;;-0.50;99.90;;;;;;4734346;30;20075;-79
2020/12/11 06:26:02;;;;;;;21.83;11.63;;;-0.50;99.90;;;;;;4720404;30;20135;-79
2020/12/11 06:28:36;;;;;;;23.35;12.07;;;-0.40;99.90;;;;;;4719186;30;20044;-78
2020/12/11 06:31:04;;;;;;;22.67;12.30;;;-0.30;99.90;;;;;;4719327;30;20079;-79
2020/12/11 06:33:35;;;;;;;23.13;12.68;;;-0.40;99.90;;;;;;4718614;30;20139;-77
2020/12/11 06:36:03;;;;;;;25.00;12.77;;;-0.50;99.90;;;;;;4733576;30;20115;-78
2020/12/11 06:38:54;;;;;;;23.85;12.40;;;-0.50;99.90;;;;;;4718562;30;20572;-78
2020/12/11 06:41:32;;;;;;;24.67;12.80;;;-0.40;99.90;;;;;;4733514;30;20401;-78
2020/12/11 06:44:10;;;;;;;28.33;13.85;;;-0.40;99.90;;;;;;4719131;30;20052;-78
2020/12/11 06:46:36;;;;;;;22.20;11.70;;;-0.40;99.90;;;;;;4750654;30;20123;-79
2020/12/11 06:49:15;;;;;;;22.75;12.48;;;-0.50;99.90;;;;;;4705077;30;20045;-78
2020/12/11 06:51:44;;;;;;;;;;;-0.50;99.90;;;;;;4716965;30;20063;-79
2020/12/11 06:54:22;;;;;;;19.88;10.77;;;-0.60;99.90;;;;;;4716260;30;20009;-78
2020/12/11 06:56:51;;;;;;;23.67;11.63;;;-0.60;99.90;;;;;;4733508;30;20493;-79
2020/12/11 06:59:25;;;;;;;22.85;11.85;;;-0.60;99.90;;;;;;4733444;30;20472;-78
2020/12/11 07:01:53;;;;;;;22.80;12.25;;;-0.70;99.90;;;;;;4734070;30;20048;-79
2020/12/11 07:04:40;;;;;;;25.97;12.57;;;-0.70;99.90;;;;;;4734388;30;20118;-78
2020/12/11 07:07:12;;;;;;;22.92;11.90;;;-0.70;99.90;;;;;;4733739;30;20315;-77
2020/12/11 07:09:46;;;;;;;21.85;11.88;;;-0.70;99.90;;;;;;4733094;30;20064;-78
2020/12/11 07:12:15;;;;;;;27.48;11.80;;;-0.70;99.90;;;;;;4733144;30;20048;-78
2020/12/11 07:14:43;;;;;;;26.10;13.80;;;-0.70;99.90;;;;;;4718571;30;20059;-78
2020/12/11 07:17:25;;;;;;;26.02;11.50;;;-0.70;99.90;;;;;;4733051;30;20048;-77
2020/12/11 07:19:52;;;;;;;23.17;12.88;;;-0.70;99.90;;;;;;4732214;30;20437;-78
2020/12/11 07:22:22;;;;;;;23.77;12.23;;;-0.70;99.90;;;;;;4718780;30;20635;-78
2020/12/11 07:24:53;;;;;;;25.08;12.30;;;-0.70;99.90;;;;;;4733019;30;20398;-78
2020/12/11 07:27:20;;;;;;;21.05;11.50;;;-0.60;99.90;;;;;;4732127;30;20055;-78
2020/12/11 07:29:48;;;;;;;20.50;11.32;;;-0.60;99.90;;;;;;4732076;30;20516;-78
2020/12/11 07:32:21;;;;;;;24.52;12.18;;;-0.60;99.90;;;;;;4735015;30;20048;-80
2020/12/11 07:34:48;;;;;;;22.48;11.57;;;-0.60;99.90;;;;;;4736116;30;20068;-80
2020/12/11 07:37:19;;;;;;;20.88;12.15;;;-0.50;99.90;;;;;;4736454;30;20048;-78
2020/12/11 07:39:53;;;;;;;24.58;11.70;;;-0.50;99.90;;;;;;4735504;30;20151;-79
2020/12/11 07:42:24;;;;;;;25.05;13.23;;;-0.40;99.90;;;;;;4721693;30;20593;-78
2020/12/11 07:44:51;;;;;;;24.42;13.13;;;-0.40;99.90;;;;;;4736085;30;20056;-78
2020/12/11 07:47:26;;;;;;;21.92;12.15;;;-0.40;99.90;;;;;;4735447;30;20056;-78
2020/12/11 07:49:53;;;;;;;22.08;12.25;;;-0.30;99.90;;;;;;4735835;30;20513;-79
2020/12/11 07:52:27;;;;;;;25.80;12.38;;;-0.10;99.90;;;;;;4738999;30;20076;-80
2020/12/11 07:54:54;;;;;;;34.10;15.82;;;0.40;99.90;;;;;;4739497;30;20406;-81
2020/12/11 07:57:26;;;;;;;24.60;13.10;;;0.80;99.90;;;;;;4739264;30;20052;-79
2020/12/11 08:00:00;;;;;;;24.88;12.52;;;1.10;99.90;;;;;;4742061;30;20048;-79
2020/12/11 08:02:32;;;;;;;28.50;12.60;;;1.30;99.90;;;;;;4747789;30;20060;-76
2020/12/11 08:05:07;;;;;;;24.58;12.95;;;1.40;99.90;;;;;;4757907;30;20064;-77
2020/12/11 08:07:34;;;;;;;23.58;12.18;;;1.50;99.90;;;;;;4757072;30;20512;-77
2020/12/11 08:10:10;;;;;;;22.38;11.55;;;1.50;99.90;;;;;;4742317;30;20132;-77
2020/12/11 08:12:43;;;;;;;31.70;16.48;;;1.50;99.90;;;;;;4735056;30;20054;-77
2020/12/11 08:15:26;;;;;;;24.75;13.40;;;1.50;99.90;;;;;;4759898;30;20139;-77
2020/12/11 08:18:20;;;;;;;23.20;13.13;;;1.40;99.90;;;;;;4727753;30;20060;-77
2020/12/11 08:20:48;;;;;;;22.50;11.68;;;1.20;99.90;;;;;;4730375;30;20349;-76
2020/12/11 08:23:19;;;;;;;23.55;13.07;;;1.10;99.90;;;;;;4743839;30;20048;-78
2020/12/11 08:25:46;;;;;;;23.98;13.40;;;0.90;99.90;;;;;;4743398;30;20239;-77
2020/12/11 08:28:13;;;;;;;22.75;12.82;;;0.80;99.90;;;;;;4744419;30;20083;-77
2020/12/11 08:30:39;;;;;;;23.73;12.07;;;0.70;99.90;;;;;;4744922;30;20131;-77
2020/12/11 08:33:12;;;;;;;26.92;14.02;;;0.60;99.90;;;;;;4744861;30;20052;-77
2020/12/11 08:35:38;;;;;;;28.73;14.80;;;0.50;99.90;;;;;;4744701;30;20091;-77
2020/12/11 08:38:10;;;;;;;35.95;17.20;;;0.50;99.90;;;;;;4728986;30;20128;-77
2020/12/11 08:40:48;;;;;;;30.83;16.67;;;0.50;99.90;;;;;;4744014;30;20472;-77
2020/12/11 08:46:00;;;;;;;27.98;15.05;;;0.50;99.90;;;;;;4744233;30;20083;-77
2020/12/11 08:48:45;;;;;;;28.15;14.70;;;0.40;99.90;;;;;;4743559;30;20040;-77
2020/12/11 08:51:11;;;;;;;26.20;13.77;;;0.40;99.90;;;;;;4744524;30;20470;-76
2020/12/11 08:53:49;;;;;;;23.52;12.70;;;0.50;99.90;;;;;;4744995;30;20048;-77
2020/12/11 08:56:20;;;;;;;27.15;13.43;;;0.50;99.90;;;;;;4744317;30;20051;-78
2020/12/11 08:58:47;;;;;;;26.73;14.57;;;0.60;99.90;;;;;;4744447;30;20056;-77
2020/12/11 09:01:18;;;;;;;24.83;13.70;;;0.50;99.90;;;;;;4745534;30;20536;-77
2020/12/11 09:03:44;;;;;;;24.50;13.15;;;0.50;99.90;;;;;;4744581;30;20060;-77
2020/12/11 09:06:10;;;;;;;24.50;13.52;;;0.50;99.90;;;;;;4729619;30;20139;-77
2020/12/11 09:08:37;;;;;;;24.73;13.65;;;0.50;99.90;;;;;;4728729;30;20056;-77
2020/12/11 09:11:03;;;;;;;24.63;12.98;;;0.60;99.90;;;;;;4743907;30;20071;-76
2020/12/11 09:13:29;;;;;;;25.83;12.50;;;0.60;99.90;;;;;;4729250;30;20049;-76
2020/12/11 09:15:56;;;;;;;22.48;12.48;;;0.60;99.90;;;;;;4742595;30;20147;-78
2020/12/11 09:18:23;;;;;;;22.50;11.95;;;0.60;99.90;;;;;;4728445;30;20052;-76
2020/12/11 09:20:50;;;;;;;23.50;12.82;;;0.50;99.90;;;;;;4743484;30;20056;-77
2020/12/11 09:23:17;;;;;;;22.00;12.60;;;0.50;99.90;;;;;;4744065;30;20063;-77
2020/12/11 09:25:48;;;;;;;22.10;12.10;;;0.50;99.90;;;;;;4743295;30;20105;-77
2020/12/11 09:28:17;;;;;;;25.88;13.73;;;0.50;99.90;;;;;;4743239;30;20079;-76
2020/12/11 09:30:46;;;;;;;24.38;11.57;;;0.50;99.90;;;;;;4743246;30;20152;-77
2020/12/11 09:33:15;;;;;;;20.65;11.27;;;0.50;99.90;;;;;;4744128;30;20048;-77
2020/12/11 09:35:47;;;;;;;22.52;12.23;;;0.50;99.90;;;;;;4745437;30;20052;-76
2020/12/11 09:38:13;;;;;;;26.80;13.73;;;0.50;99.90;;;;;;4759374;30;20056;-76
2020/12/11 09:40:49;;;;;;;24.52;12.20;;;0.40;99.90;;;;;;4726340;30;20067;-77
2020/12/11 09:46:48;;;;;;;24.48;12.43;;;0.80;99.90;;;;;;4730398;30;20568;-78
2020/12/11 09:49:22;;;;;;;21.80;11.85;;;1.10;99.90;;;;;;4720213;30;20048;-79
2020/12/11 09:52:02;;;;;;;22.15;11.82;;;1.40;99.90;;;;;;4735266;30;20143;-79
2020/12/11 09:54:35;;;;;;;23.33;11.60;;;1.70;99.90;;;;;;4734644;30;20058;-76
2020/12/11 09:57:06;;;;;;;25.00;12.77;;;1.90;99.90;;;;;;4736408;30;20051;-77
2020/12/11 09:59:35;;;;;;;22.15;12.75;;;2.10;99.90;;;;;;4735361;30;20059;-77
2020/12/11 10:04:52;;;;;;;20.88;12.07;;;2.30;99.90;;;;;;4721838;30;629632;-77
2020/12/11 10:07:18;;;;;;;19.33;10.93;;;2.30;99.90;;;;;;4730653;30;20518;-76
2020/12/11 10:09:44;;;;;;;19.33;10.10;;;2.10;99.90;;;;;;4725709;30;20057;-76
2020/12/11 10:12:11;;;;;;;18.75;10.65;;;2.00;99.90;;;;;;4728743;30;20052;-76
2020/12/11 10:14:47;;;;;;;24.35;13.20;;;1.80;99.90;;;;;;4713289;30;20063;-76
2020/12/11 10:17:15;;;;;;;19.60;11.13;;;1.80;99.90;;;;;;4727841;30;20306;-76
2020/12/11 10:19:41;;;;;;;20.95;12.23;;;1.70;99.90;;;;;;4728171;30;20110;-76
2020/12/11 10:22:13;;;;;;;20.33;9.90;;;1.60;99.90;;;;;;4725304;30;20056;-76
2020/12/11 10:24:39;;;;;;;20.63;11.93;;;1.60;99.90;;;;;;4725698;30;20057;-76
2020/12/11 10:27:11;;;;;;;19.00;10.68;;;1.60;99.90;;;;;;4725967;30;20413;-76
2020/12/11 10:29:37;;;;;;;19.08;10.55;;;1.70;99.90;;;;;;4724328;30;20061;-76
2020/12/11 10:32:05;;;;;;;20.13;11.15;;;1.70;99.90;;;;;;4723833;30;20072;-76
2020/12/11 10:34:31;;;;;;;19.92;11.63;;;1.60;99.90;;;;;;4723444;30;20045;-77
2020/12/11 10:37:07;;;;;;;19.88;11.43;;;1.60;99.90;;;;;;4724497;30;20076;-76
2020/12/11 10:39:34;;;;;;;19.52;10.32;;;1.70;99.90;;;;;;4722932;30;20098;-76
2020/12/11 10:42:02;;;;;;;16.65;10.43;;;1.80;99.90;;;;;;4722163;30;20057;-77
2020/12/11 10:44:28;;;;;;;20.17;11.80;;;1.90;99.90;;;;;;4750191;30;20179;-77
2020/12/11 10:46:55;;;;;;;22.75;11.52;;;1.90;99.90;;;;;;4740997;30;20150;-76
2020/12/11 10:49:21;;;;;;;19.50;10.73;;;1.90;99.90;;;;;;4738537;30;20067;-76
2020/12/11 10:51:51;;;;;;;20.92;11.55;;;1.90;99.90;;;;;;4754864;30;20047;-76
2020/12/11 10:54:18;;;;;;;20.83;10.75;;;1.90;99.90;;;;;;4727483;30;20139;-77
2020/12/11 10:56:45;;;;;;;21.40;10.60;;;1.80;99.90;;;;;;4757025;30;20517;-77
2020/12/11 10:59:13;;;;;;;17.80;9.95;;;1.80;99.90;;;;;;4741081;30;20162;-77
2020/12/11 11:01:41;;;;;;;18.52;10.57;;;1.70;99.90;;;;;;4743679;30;20611;-77
2020/12/11 11:04:08;;;;;;;18.08;10.38;;;1.70;99.90;;;;;;4743519;30;20055;-77
2020/12/11 11:11:41;;;;;;;18.80;11.18;;;1.60;99.90;;;;;;4762254;30;20050;-77
2020/12/11 11:22:27;;;;;;;20.55;11.45;;;1.70;99.90;;;;;;4756743;30;20405;-77
2020/12/11 11:28:05;;;;;;;21.23;11.68;;;1.90;99.90;;;;;;4758747;30;20054;-77
2020/12/11 11:30:31;;;;;;;23.25;11.30;;;1.90;99.90;;;;;;4757197;30;20078;-77
2020/12/11 11:32:58;;;;;;;23.05;12.05;;;1.90;99.90;;;;;;4760977;30;20078;-77
2020/12/11 11:35:27;;;;;;;22.80;12.18;;;2.00;99.90;;;;;;4746156;30;20075;-77
2020/12/11 11:37:54;;;;;;;23.15;12.02;;;2.00;99.90;;;;;;4744675;30;20590;-77
2020/12/11 11:40:20;;;;;;;22.70;11.82;;;2.00;99.90;;;;;;4744460;30;20066;-77
2020/12/11 11:42:46;;;;;;;21.45;11.45;;;2.10;99.90;;;;;;4757023;30;20521;-77
2020/12/11 11:45:18;;;;;;;23.23;12.55;;;2.10;99.90;;;;;;4742835;30;20051;-77
2020/12/11 11:47:49;;;;;;;22.48;11.15;;;2.10;99.90;;;;;;4742608;30;20512;-77
2020/12/11 11:52:50;;;;;;;22.95;12.57;;;2.30;99.90;;;;;;4757370;30;20052;-76
2020/12/11 11:55:17;;;;;;;24.58;13.20;;;2.30;99.90;;;;;;4742834;30;20143;-77
2020/12/11 11:57:48;;;;;;;19.58;11.63;;;2.40;99.90;;;;;;4737612;30;20060;-77
2020/12/11 12:00:14;;;;;;;21.48;11.88;;;2.40;99.90;;;;;;4726274;30;20509;-77
2020/12/11 12:02:40;;;;;;;24.10;12.27;;;2.30;99.90;;;;;;4724555;30;20115;-77
2020/12/11 12:05:10;;;;;;;25.25;12.50;;;2.30;99.90;;;;;;4741181;30;20143;-77
2020/12/11 12:07:40;;;;;;;23.02;12.77;;;2.30;99.90;;;;;;4741491;30;20079;-77
2020/12/11 12:10:11;;;;;;;21.80;11.75;;;2.40;99.90;;;;;;4737148;30;20055;-77
2020/12/11 12:12:41;;;;;;;20.02;11.35;;;2.50;99.90;;;;;;4725239;30;20076;-77
2020/12/11 12:15:14;;;;;;;21.73;11.90;;;2.40;99.90;;;;;;4730283;30;20132;-77
2020/12/11 12:18:09;;;;;;;23.75;11.93;;;2.50;99.90;;;;;;4738680;30;20090;-77
2020/12/11 12:28:57;;;;;;;22.77;12.05;;;2.80;99.90;;;;;;4733459;30;20044;-77
2020/12/11 12:31:29;;;;;;;27.05;15.98;;;3.20;99.90;;;;;;4751258;30;20473;-77
2020/12/11 12:34:42;;;;;;;32.30;20.70;;;3.40;99.90;;;;;;4721053;30;20087;-77
2020/12/11 12:39:37;;;;;;;22.60;13.07;;;3.30;99.90;;;;;;4751006;30;20481;-77
2020/12/11 12:44:42;;;;;;;25.38;11.68;;;3.20;99.90;;;;;;4721477;30;20052;-77
2020/12/11 12:47:14;;;;;;;20.05;11.07;;;3.10;99.90;;;;;;4708601;30;20056;-77
2020/12/11 12:49:45;;;;;;;22.63;13.25;;;3.00;99.90;;;;;;4707144;30;20107;-77
2020/12/11 12:52:11;;;;;;;24.38;12.68;;;3.00;99.90;;;;;;4708344;30;20049;-77
2020/12/11 12:54:38;;;;;;;20.08;11.90;;;2.90;99.90;;;;;;4727674;30;20669;-77
2020/12/11 12:57:09;;;;;;;20.05;11.73;;;2.90;99.90;;;;;;4722035;30;20060;-77
2020/12/11 13:07:06;;;;;;;21.35;11.63;;;3.20;99.90;;;;;;4721733;30;20044;-77
2020/12/11 13:09:33;;;;;;;20.85;11.50;;;3.30;99.90;;;;;;4720300;30;20057;-77
2020/12/11 13:12:05;;;;;;;21.02;11.52;;;3.30;99.90;;;;;;4722245;30;20040;-77
2020/12/11 13:14:31;;;;;;;18.35;10.88;;;3.40;99.90;;;;;;4721637;30;20091;-77
2020/12/11 13:16:57;;;;;;;21.92;13.30;;;3.30;99.90;;;;;;4721446;30;20369;-77
2020/12/11 13:19:30;;;;;;;26.85;13.57;;;3.30;99.90;;;;;;4729789;30;20047;-77
2020/12/11 13:27:27;;;;;;;51.08;19.67;;;3.30;99.90;;;;;;4737993;30;20071;-77
2020/12/11 13:29:53;;;;;;;27.40;14.90;;;3.20;99.90;;;;;;4723455;30;20048;-77
2020/12/11 13:32:20;;;;;;;35.40;16.70;;;3.10;99.90;;;;;;4724343;30;20091;-77
2020/12/11 13:34:52;;;;;;;45.42;17.05;;;3.00;99.90;;;;;;4724708;30;20413;-77
2020/12/11 13:37:23;;;;;;;38.08;14.88;;;2.90;99.90;;;;;;4724643;30;20052;-77
2020/12/11 13:39:56;;;;;;;23.55;12.77;;;2.80;99.90;;;;;;4725081;30;20139;-77
2020/12/11 13:42:22;;;;;;;27.00;12.95;;;2.70;99.90;;;;;;4725435;30;20056;-77
2020/12/11 13:44:48;;;;;;;23.00;12.88;;;2.70;99.90;;;;;;4724619;30;20064;-77